Inglenook, California
Current Conditions -  °F | °C
As of 7:56 PM on Friday 31 Oct 2014 (Local Time) from KUKI Reporting Station
Clear Clear  
Wind Chill: 56°   Ceiling: Unl
Heat Index: 56°   Visibility: 10mi
Dew Point: 46°   Wind: 8mph
Humidity: 69%   Direction: 350°N
Pressure: 29.77"   Gusts: NA
Location:  39.4588°N, 123.715°W
Report Text: KUKI 010256Z AUTO 35007KT 10SM CLR 13/08 A2977 RMK AO2 SLP075 T01330078 50002
Loading
Personal Weather Stations






























Interactive Weather Map
Tropical Storm Tracking
New forecast layout! Learn more

10-Day Weather Forecast

Advertisements
Track Severe Weather on mobile